SVMI/CCS METAR and TAF weather

Enter ICAO airport designator
Station Type Date Time Source
SVMI METAR 2019/07/15 18:00 UTC NOAA

SVMI 151800Z 02002KT 9999 BKN016 30/20 Q1011


Station Type Date Time Source
SVMI Decoded METAR 2019/07/15 18:00 UTC NOAA

Caracas / Maiquetia Aerop. Intl. Simon Bolivar, Venezuela (SVMI) 10-36N 066-59W 48M
Jul 15, 2019 - 02:00 PM EDT / 2019.07.15 1800 UTC
Wind: from the NNE (020 degrees) at 2 MPH (2 KT):0
Visibility: greater than 7 mile(s):0
Sky conditions: mostly cloudy
Temperature: 86 F (30 C)
Dew Point: 68 F (20 C)
Relative Humidity: 55%
Pressure (altimeter): 29.85 in. Hg (1011 hPa)
ob: SVMI 151800Z 02002KT 9999 BKN016 30/20 Q1011
cycle: 18

Station Type Date Time Source
SVMI TAF 2019/07/15 18:03 UTC NOAA

TAF SVMI 151600Z 1518/1618 07006KT 9999 BKN016 TX33/18Z TN24/08Z
TEMPO 1518/1523 07008KT 9000 -DZ BKN016

Example: see airport list